Time;durP1;ratioP1;P1;durP2;ratioP2;P2;SDS_P1;SDS_P2;PMS_P1;PMS_P2;Temp;Humidity;BMP_temperature;BMP_pressure;BME280_temperature;BME280_humidity;BME280_pressure;Samples;Min_cycle;Max_cycle;Signal;HPM_P1;HPM_P2
2021/10/27 00:00:11;;;;;;;0.20;0.20;;;;;;;;;;4890451;29;20062;-96
2021/10/27 00:02:36;;;;;;;0.20;0.20;;;;;;;;;;4902791;29;20062;-96
2021/10/27 00:05:26;;;;;;;0.20;0.20;;;;;;;;;;4903719;29;20044;-96
2021/10/27 00:08:03;;;;;;;0.10;0.10;;;;;;;;;;4887250;29;20052;-95
2021/10/27 00:10:48;;;;;;;0.10;0.10;;;;;;;;;;4887446;29;20484;-95
2021/10/27 00:13:16;;;;;;;0.10;0.10;;;;;;;;;;4892144;29;20043;-96
2021/10/27 00:15:43;;;;;;;0.20;0.20;;;;;;;;;;4892230;29;20090;-95
2021/10/27 00:18:09;;;;;;;0.22;0.22;;;;;;;;;;4891580;29;20044;-95
2021/10/27 00:20:43;;;;;;;0.10;0.10;;;;;;;;;;4892684;29;20207;-96
2021/10/27 00:23:11;;;;;;;0.10;0.10;;;;;;;;;;4892865;29;20086;-94
2021/10/27 00:25:38;;;;;;;0.10;0.10;;;;;;;;;;4891466;29;20044;-95
2021/10/27 00:28:04;;;;;;;0.10;0.10;;;;;;;;;;4906169;29;20039;-95
2021/10/27 00:30:30;;;;;;;0.17;0.17;;;;;;;;;;4890580;29;20040;-93
2021/10/27 00:32:58;;;;;;;0.17;0.17;;;;;;;;;;4890800;29;20047;-95
2021/10/27 00:35:32;;;;;;;0.10;0.10;;;;;;;;;;4890797;29;20050;-96
2021/10/27 00:38:01;;;;;;;0.30;0.30;;;;;;;;;;4891059;29;20376;-96
2021/10/27 00:40:31;;;;;;;0.10;0.10;;;;;;;;;;4890778;29;20055;-96
2021/10/27 00:43:07;;;;;;;;;;;;;;;;;;;;;
2021/10/27 00:45:41;;;;;;;0.10;0.10;;;;;;;;;;4908120;29;20124;-95
2021/10/27 00:48:07;;;;;;;0.45;0.45;;;;;;;;;;4890983;29;20513;-95
2021/10/27 00:50:37;;;;;;;0.40;0.40;;;;;;;;;;4891576;29;20048;-93
2021/10/27 00:53:16;;;;;;;;;;;;;;;;;;;;;
2021/10/27 00:55:51;;;;;;;0.20;0.20;;;;;;;;;;4910265;29;20047;-96
2021/10/27 00:58:29;;;;;;;0.10;0.10;;;;;;;;;;4891014;29;20111;-93
2021/10/27 01:04:15;;;;;;;;;;;;;;;;;;;;;
2021/10/27 01:06:44;;;;;;;0.17;0.17;;;;;;;;;;4919805;29;20055;-96
2021/10/27 01:09:21;;;;;;;0.10;0.10;;;;;;;;;;4909038;29;20409;-96
2021/10/27 01:11:48;;;;;;;0.10;0.10;;;;;;;;;;4906882;29;20044;-95
2021/10/27 01:14:14;;;;;;;0.30;0.30;;;;;;;;;;4889744;29;20036;-94
2021/10/27 01:16:40;;;;;;;0.10;0.10;;;;;;;;;;4889434;29;20050;-95
2021/10/27 01:19:07;;;;;;;0.25;0.25;;;;;;;;;;4889846;29;20372;-94
2021/10/27 01:21:33;;;;;;;0.10;0.10;;;;;;;;;;4889517;29;20051;-95
2021/10/27 01:23:59;;;;;;;0.20;0.20;;;;;;;;;;4904797;29;20190;-95
2021/10/27 01:26:26;;;;;;;0.10;0.10;;;;;;;;;;4889572;29;20039;-93
2021/10/27 01:28:52;;;;;;;0.10;0.10;;;;;;;;;;4889544;29;20066;-96
2021/10/27 01:31:18;;;;;;;0.10;0.10;;;;;;;;;;4889498;29;20067;-92
2021/10/27 01:34:29;;;;;;;0.55;0.55;;;;;;;;;;4891479;29;20067;-95
2021/10/27 01:36:57;;;;;;;0.85;0.85;;;;;;;;;;4929975;29;20060;-96
2021/10/27 01:39:24;;;;;;;0.55;0.55;;;;;;;;;;4889291;29;20050;-93
2021/10/27 01:41:50;;;;;;;0.28;0.28;;;;;;;;;;4889377;29;20047;-95
2021/10/27 01:44:17;;;;;;;0.10;0.10;;;;;;;;;;4889028;29;20052;-96
2021/10/27 01:46:43;;;;;;;0.50;0.50;;;;;;;;;;4904876;29;20184;-96
2021/10/27 01:49:09;;;;;;;0.20;0.20;;;;;;;;;;4889154;29;20051;-94
2021/10/27 01:51:36;;;;;;;0.20;0.20;;;;;;;;;;4919169;29;20058;-95
2021/10/27 01:54:26;;;;;;;0.10;0.10;;;;;;;;;;4890530;29;20449;-96
2021/10/27 01:57:03;;;;;;;0.28;0.28;;;;;;;;;;4909001;29;20051;-95
2021/10/27 01:59:32;;;;;;;0.10;0.10;;;;;;;;;;4889877;29;20091;-95
2021/10/27 02:02:02;;;;;;;0.20;0.20;;;;;;;;;;4906282;29;20055;-96
2021/10/27 02:04:44;;;;;;;0.10;0.10;;;;;;;;;;4907946;29;20121;-96
2021/10/27 02:07:36;;;;;;;0.20;0.20;;;;;;;;;;4896391;29;20043;-96
2021/10/27 02:10:07;;;;;;;0.28;0.28;;;;;;;;;;4891061;29;20138;-95
2021/10/27 02:12:33;;;;;;;0.20;0.20;;;;;;;;;;4889247;29;20103;-94
2021/10/27 02:14:59;;;;;;;0.20;0.20;;;;;;;;;;4889152;29;20040;-95
2021/10/27 02:17:25;;;;;;;0.10;0.10;;;;;;;;;;4889200;29;20075;-96
2021/10/27 02:19:51;;;;;;;0.20;0.20;;;;;;;;;;4888776;29;20162;-96
2021/10/27 02:22:17;;;;;;;0.43;0.43;;;;;;;;;;4889040;29;20102;-96
2021/10/27 02:24:43;;;;;;;0.10;0.10;;;;;;;;;;4888659;29;20048;-96
2021/10/27 02:27:09;;;;;;;0.65;0.52;;;;;;;;;;4888371;29;20051;-95
2021/10/27 02:29:36;;;;;;;0.10;0.10;;;;;;;;;;4888436;29;20047;-95
2021/10/27 02:32:02;;;;;;;0.52;0.52;;;;;;;;;;4888635;29;20498;-94
2021/10/27 02:34:28;;;;;;;0.47;0.20;;;;;;;;;;4888269;29;20126;-95
2021/10/27 02:36:54;;;;;;;0.30;0.30;;;;;;;;;;4919682;29;20491;-95
2021/10/27 02:39:20;;;;;;;0.10;0.10;;;;;;;;;;4888153;29;20036;-95
2021/10/27 02:41:47;;;;;;;0.10;0.10;;;;;;;;;;4904041;29;20111;-95
2021/10/27 02:44:13;;;;;;;0.20;0.20;;;;;;;;;;4887876;29;20160;-96
2021/10/27 02:46:39;;;;;;;0.10;0.10;;;;;;;;;;4888303;29;20079;-94
2021/10/27 02:49:05;;;;;;;0.30;0.30;;;;;;;;;;4888014;29;20102;-93
2021/10/27 02:51:34;;;;;;;0.10;0.10;;;;;;;;;;4889279;29;20210;-95
2021/10/27 02:54:01;;;;;;;0.10;0.10;;;;;;;;;;4888115;29;20044;-94
2021/10/27 02:56:27;;;;;;;0.10;0.10;;;;;;;;;;4903545;29;20066;-94
2021/10/27 02:58:53;;;;;;;0.20;0.20;;;;;;;;;;4887860;29;20450;-96
2021/10/27 03:01:19;;;;;;;0.70;0.38;;;;;;;;;;4888042;29;20043;-96
2021/10/27 03:03:46;;;;;;;0.20;0.20;;;;;;;;;;4887612;29;20095;-94
2021/10/27 03:06:13;;;;;;;0.10;0.10;;;;;;;;;;4887850;29;20070;-96
2021/10/27 03:08:39;;;;;;;0.30;0.30;;;;;;;;;;4887753;29;20555;-96
2021/10/27 03:11:05;;;;;;;0.10;0.10;;;;;;;;;;4887536;29;20040;-94
2021/10/27 03:13:31;;;;;;;0.63;0.63;;;;;;;;;;4887787;29;20040;-96
2021/10/27 03:15:57;;;;;;;0.30;0.30;;;;;;;;;;4887665;29;20048;-96
2021/10/27 03:18:23;;;;;;;0.22;0.22;;;;;;;;;;4887822;29;20070;-96
2021/10/27 03:21:12;;;;;;;0.10;0.10;;;;;;;;;;4890063;29;20048;-96
2021/10/27 03:23:38;;;;;;;0.10;0.10;;;;;;;;;;4904484;29;20454;-95
2021/10/27 03:26:06;;;;;;;0.20;0.20;;;;;;;;;;4888840;29;20046;-96
2021/10/27 03:28:53;;;;;;;0.10;0.10;;;;;;;;;;4890448;29;20062;-96
2021/10/27 03:31:20;;;;;;;0.20;0.20;;;;;;;;;;4906677;29;20044;-96
2021/10/27 03:34:02;;;;;;;;;;;;;;;;;;;;;
2021/10/27 04:03:12;;;;;;;0.10;0.10;;;;;;;;;;5022894;23;20043;-95
2021/10/27 04:06:11;;;;;;;0.10;0.10;;;;;;;;;;4946412;29;20048;-96
2021/10/27 04:08:37;;;;;;;0.13;0.13;;;;;;;;;;4926403;29;20062;-96
2021/10/27 04:14:00;;;;;;;0.10;0.10;;;;;;;;;;4929754;29;20047;-95
2021/10/27 04:22:28;;;;;;;0.20;0.20;;;;;;;;;;4945675;29;20408;-95
2021/10/27 04:27:57;;;;;;;0.10;0.10;;;;;;;;;;4931077;29;20099;-96
2021/10/27 05:24:41;;;;;;;0.10;0.10;;;;;;;;;;6143896;22;1413175;-96
2021/10/27 05:27:10;;;;;;;0.13;0.13;;;;;;;;;;6089021;23;20017;-94
2021/10/27 05:29:36;;;;;;;0.10;0.10;;;;;;;;;;6089252;23;20475;-95
2021/10/27 05:32:09;;;;;;;0.10;0.10;;;;;;;;;;6088680;23;20015;-94
2021/10/27 05:34:38;;;;;;;0.20;0.20;;;;;;;;;;6089620;23;20016;-95
2021/10/27 05:37:06;;;;;;;0.10;0.10;;;;;;;;;;6088885;23;20096;-96
2021/10/27 05:39:43;;;;;;;0.10;0.10;;;;;;;;;;6088871;23;20045;-93
2021/10/27 05:42:14;;;;;;;0.10;0.10;;;;;;;;;;6113001;23;20069;-91
2021/10/27 05:44:51;;;;;;;0.20;0.20;;;;;;;;;;6089775;23;20016;-94
2021/10/27 05:56:19;;;;;;;0.10;0.10;;;;;;;;;;6118481;23;20028;-94
2021/10/27 05:58:45;;;;;;;0.15;0.15;;;;;;;;;;6121781;23;20009;-96
2021/10/27 06:01:11;;;;;;;0.10;0.10;;;;;;;;;;6117550;23;20522;-94
2021/10/27 06:03:58;;;;;;;0.10;0.10;;;;;;;;;;6091086;23;20079;-94
2021/10/27 06:13:09;;;;;;;0.10;0.10;;;;;;;;;;5976629;23;20020;-95
2021/10/27 06:15:38;;;;;;;0.10;0.10;;;;;;;;;;6066909;23;20464;-94
2021/10/27 06:18:04;;;;;;;0.10;0.10;;;;;;;;;;6084207;23;20022;-94
2021/10/27 06:24:44;;;;;;;0.10;0.10;;;;;;;;;;6003100;24;20096;-96
2021/10/27 06:27:13;;;;;;;0.28;0.22;;;;;;;;;;5915708;23;20052;-96
2021/10/27 06:29:46;;;;;;;0.10;0.10;;;;;;;;;;5967967;23;20022;-96
2021/10/27 06:35:02;;;;;;;0.10;0.10;;;;;;;;;;6074435;23;20025;-95
2021/10/27 06:52:32;;;;;;;0.10;0.10;;;;;;;;;;6130008;23;20037;-95
2021/10/27 06:58:07;;;;;;;0.20;0.20;;;;;;;;;;6172014;23;19904;-95
2021/10/27 07:00:45;;;;;;;0.30;0.30;;;;;;;;;;6166172;23;20013;-94
2021/10/27 07:03:41;;;;;;;0.10;0.10;;;;;;;;;;6127393;23;20017;-91
2021/10/27 07:17:09;;;;;;;0.10;0.10;;;;;;;;;;6105303;23;20018;-91
2021/10/27 07:19:35;;;;;;;6.45;1.98;;;;;;;;;;6076684;23;20272;-95
2021/10/27 07:30:28;;;;;;;0.10;0.10;;;;;;;;;;6156999;23;20073;-93
2021/10/27 07:32:57;;;;;;;0.10;0.10;;;;;;;;;;6081292;23;20448;-92
2021/10/27 07:35:52;;;;;;;0.10;0.10;;;;;;;;;;6089705;23;20109;-91
2021/10/27 07:41:02;;;;;;;0.17;0.17;;;;;;;;;;6075372;23;20030;-92
2021/10/27 07:43:55;;;;;;;0.10;0.10;;;;;;;;;;6071367;23;20011;-96
2021/10/27 07:48:57;;;;;;;0.10;0.10;;;;;;;;;;6113808;23;20022;-94
2021/10/27 07:51:26;;;;;;;0.10;0.10;;;;;;;;;;6076730;23;20022;-94
2021/10/27 07:53:53;;;;;;;0.20;0.20;;;;;;;;;;6076719;23;20022;-95
2021/10/27 07:57:00;;;;;;;0.10;0.10;;;;;;;;;;6074708;23;20494;-95
2021/10/27 08:00:24;;;;;;;;;;;;;;;;;;;;;
2021/10/27 08:02:40;;;;;;;0.10;0.10;;;;;;;;;;6093947;23;20022;-95
2021/10/27 08:05:09;;;;;;;0.20;0.20;;;;;;;;;;6082879;23;20049;-95
2021/10/27 08:07:48;;;;;;;0.20;0.20;;;;;;;;;;6125553;23;20029;-94
2021/10/27 08:10:17;;;;;;;0.10;0.10;;;;;;;;;;6081688;23;20018;-94
2021/10/27 08:12:49;;;;;;;0.10;0.10;;;;;;;;;;6082366;23;20013;-94
2021/10/27 08:15:15;;;;;;;0.10;0.10;;;;;;;;;;6100435;23;20080;-94
2021/10/27 08:17:43;;;;;;;0.20;0.20;;;;;;;;;;6076270;23;20017;-94
2021/10/27 08:20:13;;;;;;;0.10;0.10;;;;;;;;;;6079533;23;20014;-91
2021/10/27 08:28:37;;;;;;;0.20;0.20;;;;;;;;;;6122871;23;20030;-95
2021/10/27 08:33:46;;;;;;;0.10;0.10;;;;;;;;;;6102211;23;20025;-92
2021/10/27 08:36:12;;;;;;;0.10;0.10;;;;;;;;;;6073821;23;20029;-91
2021/10/27 08:38:38;;;;;;;0.20;0.20;;;;;;;;;;6071476;23;20106;-90
2021/10/27 08:41:04;;;;;;;0.20;0.20;;;;;;;;;;6095337;23;20042;-92
2021/10/27 08:43:30;;;;;;;0.10;0.10;;;;;;;;;;6071484;23;20014;-92
2021/10/27 08:45:57;;;;;;;1.10;0.20;;;;;;;;;;6071248;23;20010;-91
2021/10/27 08:48:23;;;;;;;0.10;0.10;;;;;;;;;;6071663;23;20032;-91
2021/10/27 08:50:50;;;;;;;0.20;0.20;;;;;;;;;;6071710;23;20029;-92
2021/10/27 08:53:16;;;;;;;0.10;0.10;;;;;;;;;;6095995;23;20014;-92
2021/10/27 08:55:45;;;;;;;0.35;0.25;;;;;;;;;;6071487;23;20022;-92
2021/10/27 08:58:15;;;;;;;0.10;0.10;;;;;;;;;;6071701;23;20176;-91
2021/10/27 09:00:49;;;;;;;0.10;0.10;;;;;;;;;;6072598;23;20093;-92
2021/10/27 09:03:39;;;;;;;0.20;0.20;;;;;;;;;;6072923;23;20010;-91
2021/10/27 09:06:18;;;;;;;0.10;0.10;;;;;;;;;;6074928;23;20010;-91
2021/10/27 10:10:03;;;;;;;0.10;0.10;;;;;;;;;;6103260;23;20441;-92
2021/10/27 10:12:33;;;;;;;0.10;0.10;;;;;;;;;;6102026;23;20020;-91
2021/10/27 10:20:48;;;;;;;0.10;0.10;;;;;;;;;;6187055;23;20048;-93
2021/10/27 10:23:32;;;;;;;0.10;0.10;;;;;;;;;;6110380;23;20051;-93
2021/10/27 10:26:01;;;;;;;0.20;0.20;;;;;;;;;;6106730;23;20013;-96
2021/10/27 10:28:28;;;;;;;0.10;0.10;;;;;;;;;;6107293;23;20036;-96
2021/10/27 10:31:00;;;;;;;0.10;0.10;;;;;;;;;;6106617;23;20041;-96
2021/10/27 10:33:38;;;;;;;0.10;0.10;;;;;;;;;;6107625;23;20057;-96
2021/10/27 10:36:15;;;;;;;0.10;0.10;;;;;;;;;;6106559;23;20439;-96
2021/10/27 10:41:22;;;;;;;0.20;0.20;;;;;;;;;;6131137;23;20336;-96
2021/10/27 10:58:07;;;;;;;0.10;0.10;;;;;;;;;;6112062;23;20084;-95
2021/10/27 11:00:53;;;;;;;;;;;;;;;;;;6133262;23;20021;-93
2021/10/27 11:22:19;;;;;;;0.20;0.20;;;;;;;;;;6132042;23;20343;-93
2021/10/27 11:40:15;;;;;;;0.10;0.10;;;;;;;;;;6130732;23;20024;-92
2021/10/27 11:42:58;;;;;;;0.10;0.10;;;;;;;;;;6134229;23;20013;-96
2021/10/27 11:45:34;;;;;;;;;;;;;;;;;;6107365;23;20010;-95
2021/10/27 11:48:12;;;;;;;0.10;0.10;;;;;;;;;;6105723;23;19920;-95
2021/10/27 11:50:58;;;;;;;0.10;0.10;;;;;;;;;;6108356;23;20021;-96
2021/10/27 11:53:32;;;;;;;0.10;0.10;;;;;;;;;;6103889;23;20444;-93
2021/10/27 11:55:58;;;;;;;0.10;0.10;;;;;;;;;;6106117;23;20059;-95
2021/10/27 11:58:38;;;;;;;0.20;0.20;;;;;;;;;;6105656;23;20014;-95
2021/10/27 12:01:06;;;;;;;0.10;0.10;;;;;;;;;;6105714;23;20014;-96
2021/10/27 12:03:35;;;;;;;0.13;0.13;;;;;;;;;;6107332;23;20088;-94
2021/10/27 12:06:09;;;;;;;0.10;0.10;;;;;;;;;;6106816;23;20014;-92
2021/10/27 12:08:48;;;;;;;0.20;0.20;;;;;;;;;;6133500;23;20032;-91
2021/10/27 12:11:18;;;;;;;0.28;0.28;;;;;;;;;;6134108;23;20018;-91
2021/10/27 12:19:05;;;;;;;0.10;0.10;;;;;;;;;;6142591;23;20021;-95
2021/10/27 12:21:31;;;;;;;0.20;0.20;;;;;;;;;;6106393;23;20339;-94
2021/10/27 12:24:00;;;;;;;0.20;0.20;;;;;;;;;;6129942;23;20010;-95
2021/10/27 12:26:26;;;;;;;0.10;0.10;;;;;;;;;;6106583;23;20048;-94
2021/10/27 12:29:08;;;;;;;0.20;0.20;;;;;;;;;;6105408;23;20071;-95
2021/10/27 12:31:35;;;;;;;0.10;0.10;;;;;;;;;;6106195;23;20014;-95
2021/10/27 12:34:01;;;;;;;0.52;0.38;;;;;;;;;;6105388;23;20016;-93
2021/10/27 12:36:34;;;;;;;0.10;0.10;;;;;;;;;;6105178;23;20021;-94
2021/10/27 12:39:07;;;;;;;0.10;0.10;;;;;;;;;;6107024;23;20045;-96
2021/10/27 12:41:36;;;;;;;0.10;0.10;;;;;;;;;;6129433;23;20088;-93
2021/10/27 12:47:12;;;;;;;0.10;0.10;;;;;;;;;;6123251;23;20080;-93
2021/10/27 13:48:53;;;;;;;0.10;0.10;;;;;;;;;;6166845;23;20091;-92
2021/10/27 15:22:18;;;;;;;0.20;0.20;;;;;;;;;;6072595;23;20018;-93
2021/10/27 15:30:35;;;;;;;0.20;0.20;;;;;;;;;;6077158;23;20344;-96
2021/10/27 15:41:14;;;;;;;0.15;0.15;;;;;;;;;;6075772;23;20025;-91
2021/10/27 15:51:58;;;;;;;0.10;0.10;;;;;;;;;;6074922;23;20057;-92
2021/10/27 15:54:24;;;;;;;0.10;0.10;;;;;;;;;;6072080;23;20541;-91
2021/10/27 15:56:50;;;;;;;0.10;0.10;;;;;;;;;;6071849;23;20014;-93
2021/10/27 15:59:17;;;;;;;0.10;0.10;;;;;;;;;;6047866;23;20451;-90
2021/10/27 16:01:45;;;;;;;0.10;0.10;;;;;;;;;;6071327;23;20104;-93
2021/10/27 16:04:10;;;;;;;0.10;0.10;;;;;;;;;;6047547;23;20311;-93
2021/10/27 16:06:40;;;;;;;0.10;0.10;;;;;;;;;;6071327;23;20022;-92
2021/10/27 16:09:09;;;;;;;0.10;0.10;;;;;;;;;;6072212;23;20021;-94
2021/10/27 16:11:35;;;;;;;0.17;0.17;;;;;;;;;;6072403;23;20015;-92
2021/10/27 16:14:01;;;;;;;0.70;0.55;;;;;;;;;;6047096;23;20022;-93
2021/10/27 16:16:28;;;;;;;0.10;0.10;;;;;;;;;;6047171;23;20022;-93
2021/10/27 16:18:54;;;;;;;0.10;0.10;;;;;;;;;;6071420;23;20330;-93
2021/10/27 16:21:20;;;;;;;0.10;0.10;;;;;;;;;;6071184;23;20021;-93
2021/10/27 16:23:47;;;;;;;0.10;0.10;;;;;;;;;;6071908;23;20015;-95
2021/10/27 16:26:13;;;;;;;0.10;0.10;;;;;;;;;;6072862;23;20014;-94
2021/10/27 16:28:39;;;;;;;0.20;0.20;;;;;;;;;;6048184;23;20014;-93
2021/10/27 16:31:07;;;;;;;0.10;0.10;;;;;;;;;;6047424;23;20093;-93
2021/10/27 16:33:33;;;;;;;0.10;0.10;;;;;;;;;;6047894;23;20350;-94
2021/10/27 16:35:59;;;;;;;0.20;0.20;;;;;;;;;;6047084;23;20018;-93
2021/10/27 16:38:25;;;;;;;0.15;0.15;;;;;;;;;;6047288;23;20053;-92
2021/10/27 16:40:51;;;;;;;0.10;0.10;;;;;;;;;;6070790;23;20011;-93
2021/10/27 16:43:17;;;;;;;0.10;0.10;;;;;;;;;;6046869;23;20093;-92
2021/10/27 16:45:43;;;;;;;0.10;0.10;;;;;;;;;;6046690;23;20014;-92
2021/10/27 16:48:10;;;;;;;0.10;0.10;;;;;;;;;;6073447;23;20026;-91
2021/10/27 16:50:38;;;;;;;0.10;0.10;;;;;;;;;;6074241;23;20019;-96
2021/10/27 16:53:04;;;;;;;0.10;0.10;;;;;;;;;;6050468;23;20049;-91
2021/10/27 16:55:30;;;;;;;0.10;0.10;;;;;;;;;;6049456;23;20116;-95
2021/10/27 16:58:09;;;;;;;;;;;;;;;;;;;;;
2021/10/27 17:09:13;;;;;;;0.15;0.15;;;;;;;;;;6111739;23;20018;-91
2021/10/27 17:11:48;;;;;;;0.10;0.10;;;;;;;;;;6079308;23;20018;-93
2021/10/27 17:14:14;;;;;;;0.10;0.10;;;;;;;;;;6099939;23;20317;-94
2021/10/27 17:16:40;;;;;;;0.10;0.10;;;;;;;;;;6070910;23;20114;-94
2021/10/27 17:19:06;;;;;;;0.10;0.10;;;;;;;;;;6070870;23;20085;-94
2021/10/27 17:21:32;;;;;;;0.10;0.10;;;;;;;;;;6071038;23;20010;-95
2021/10/27 17:24:00;;;;;;;0.25;0.25;;;;;;;;;;6071247;23;20022;-94
2021/10/27 17:26:26;;;;;;;0.10;0.10;;;;;;;;;;6071358;23;20020;-92
2021/10/27 17:28:53;;;;;;;0.10;0.10;;;;;;;;;;6070998;23;20019;-93
2021/10/27 17:31:19;;;;;;;0.10;0.10;;;;;;;;;;6097378;23;20046;-92
2021/10/27 17:33:45;;;;;;;0.10;0.10;;;;;;;;;;6095120;23;20018;-93
2021/10/27 17:36:11;;;;;;;0.10;0.10;;;;;;;;;;6070478;23;20018;-94
2021/10/27 17:38:38;;;;;;;0.20;0.20;;;;;;;;;;6070926;23;20014;-94
2021/10/27 17:41:05;;;;;;;0.10;0.10;;;;;;;;;;6071387;23;20046;-94
2021/10/27 17:43:32;;;;;;;0.10;0.10;;;;;;;;;;6070938;23;20074;-93
2021/10/27 17:46:01;;;;;;;0.20;0.20;;;;;;;;;;6070675;23;20015;-96
2021/10/27 17:48:37;;;;;;;0.10;0.10;;;;;;;;;;6071266;23;20049;-94
2021/10/27 17:58:46;;;;;;;0.30;0.30;;;;;;;;;;6075180;23;20062;-94
2021/10/27 18:01:16;;;;;;;0.10;0.10;;;;;;;;;;6070617;23;20023;-95
2021/10/27 18:03:43;;;;;;;0.10;0.10;;;;;;;;;;6070875;23;20057;-92
2021/10/27 18:06:09;;;;;;;0.10;0.10;;;;;;;;;;6071586;23;20177;-94
2021/10/27 18:08:38;;;;;;;0.10;0.10;;;;;;;;;;6024720;23;20081;-92
2021/10/27 18:11:07;;;;;;;0.10;0.10;;;;;;;;;;6024845;23;20053;-92
2021/10/27 18:13:38;;;;;;;0.10;0.10;;;;;;;;;;6025377;23;20014;-93
2021/10/27 18:16:11;;;;;;;0.10;0.10;;;;;;;;;;6025356;23;20085;-94
2021/10/27 18:19:28;;;;;;;0.10;0.10;;;;;;;;;;6025329;23;20019;-93
2021/10/27 18:21:29;;;;;;;0.10;0.10;;;;;;;;;;6047002;23;20417;-95
2021/10/27 18:24:06;;;;;;;0.28;0.28;;;;;;;;;;6026093;23;20014;-93
2021/10/27 18:27:13;;;;;;;0.10;0.10;;;;;;;;;;6026518;23;20090;-92
2021/10/27 18:38:03;;;;;;;0.10;0.10;;;;;;;;;;6054140;23;20029;-96
2021/10/27 18:40:39;;;;;;;0.10;0.10;;;;;;;;;;6047883;23;20010;-95
2021/10/27 18:43:09;;;;;;;0.10;0.10;;;;;;;;;;6026864;23;20014;-93
2021/10/27 18:45:35;;;;;;;0.20;0.20;;;;;;;;;;6025634;23;20022;-93
2021/10/27 18:48:02;;;;;;;0.10;0.10;;;;;;;;;;6048246;23;20104;-93
2021/10/27 18:50:36;;;;;;;0.10;0.10;;;;;;;;;;6024598;23;20021;-93
2021/10/27 19:11:30;;;;;;;0.10;0.10;;;;;;;;;;6075258;23;20022;-91
2021/10/27 19:14:21;;;;;;;0.10;0.10;;;;;;;;;;6072294;23;20029;-90
2021/10/27 19:16:44;;;;;;;0.10;0.10;;;;;;;;;;6074568;23;20018;-90
2021/10/27 19:19:10;;;;;;;0.20;0.20;;;;;;;;;;6095128;23;20053;-92
2021/10/27 19:21:36;;;;;;;0.10;0.10;;;;;;;;;;6071392;23;20014;-90
2021/10/27 19:24:04;;;;;;;0.38;0.38;;;;;;;;;;6071234;23;20017;-91
2021/10/27 19:26:38;;;;;;;0.10;0.10;;;;;;;;;;6071525;23;20017;-91
2021/10/27 20:04:39;;;;;;;0.10;0.10;;;;;;;;;;6078388;23;20204;-92
2021/10/27 20:14:59;;;;;;;0.10;0.10;;;;;;;;;;6070778;23;20026;-94
2021/10/27 20:20:11;;;;;;;0.10;0.10;;;;;;;;;;6095272;23;20022;-93
2021/10/27 20:52:22;;;;;;;0.10;0.10;;;;;;;;;;6095007;23;20074;-94
2021/10/27 20:54:50;;;;;;;0.20;0.20;;;;;;;;;;6072990;23;20010;-94
2021/10/27 20:57:31;;;;;;;0.10;0.10;;;;;;;;;;6071773;23;20029;-94
2021/10/27 21:00:06;;;;;;;0.10;0.10;;;;;;;;;;6074091;23;20025;-92
2021/10/27 21:02:46;;;;;;;0.10;0.10;;;;;;;;;;6073177;23;20022;-94
2021/10/27 21:13:27;;;;;;;0.10;0.10;;;;;;;;;;6079652;23;20026;-94
2021/10/27 21:15:53;;;;;;;0.10;0.10;;;;;;;;;;6075648;23;20090;-93
2021/10/27 21:18:20;;;;;;;0.10;0.10;;;;;;;;;;6075963;23;20014;-96
2021/10/27 21:20:46;;;;;;;0.10;0.10;;;;;;;;;;6075597;23;20017;-92
2021/10/27 21:23:12;;;;;;;0.10;0.10;;;;;;;;;;6075746;23;20021;-93
2021/10/27 21:25:39;;;;;;;0.10;0.10;;;;;;;;;;6075794;23;20010;-92
2021/10/27 21:44:06;;;;;;;0.10;0.10;;;;;;;;;;6081434;23;20014;-94
2021/10/27 21:46:32;;;;;;;0.10;0.10;;;;;;;;;;6078100;23;20021;-93
2021/10/27 21:48:59;;;;;;;0.10;0.10;;;;;;;;;;6077715;23;20301;-93
2021/10/27 21:51:25;;;;;;;0.10;0.10;;;;;;;;;;6078657;23;20022;-93
2021/10/27 21:53:51;;;;;;;0.10;0.10;;;;;;;;;;6077658;23;20060;-93
2021/10/27 21:56:22;;;;;;;0.10;0.10;;;;;;;;;;6077447;23;20076;-93
2021/10/27 21:58:50;;;;;;;0.10;0.10;;;;;;;;;;6079067;23;20021;-94
2021/10/27 22:01:16;;;;;;;0.10;0.10;;;;;;;;;;6078061;23;20017;-94
2021/10/27 22:03:42;;;;;;;0.10;0.10;;;;;;;;;;6078375;23;20089;-94
2021/10/27 22:06:11;;;;;;;0.10;0.10;;;;;;;;;;6077168;23;20081;-94
2021/10/27 22:08:37;;;;;;;0.10;0.10;;;;;;;;;;6077994;23;20028;-93
2021/10/27 22:11:03;;;;;;;0.10;0.10;;;;;;;;;;6078421;23;20344;-94
2021/10/27 22:13:31;;;;;;;0.20;0.20;;;;;;;;;;6077471;23;20117;-93
2021/10/27 22:15:57;;;;;;;0.10;0.10;;;;;;;;;;6078115;23;20102;-92
2021/10/27 22:18:23;;;;;;;0.10;0.10;;;;;;;;;;6077786;23;20049;-94
2021/10/27 22:20:50;;;;;;;0.10;0.10;;;;;;;;;;6077668;23;20049;-92
2021/10/27 22:23:17;;;;;;;0.10;0.10;;;;;;;;;;6077311;23;20014;-94
2021/10/27 22:25:44;;;;;;;0.10;0.10;;;;;;;;;;6077513;23;20387;-94
2021/10/27 22:28:10;;;;;;;0.10;0.10;;;;;;;;;;6077471;23;20018;-94
2021/10/27 22:30:36;;;;;;;0.10;0.10;;;;;;;;;;6077445;23;20018;-93
2021/10/27 22:33:03;;;;;;;0.10;0.10;;;;;;;;;;6077564;23;20014;-95
2021/10/27 22:35:29;;;;;;;0.10;0.10;;;;;;;;;;6077233;23;20018;-93
2021/10/27 22:37:55;;;;;;;0.10;0.10;;;;;;;;;;6077211;23;20285;-94
2021/10/27 22:40:21;;;;;;;0.13;0.13;;;;;;;;;;6077405;23;20096;-95
2021/10/27 22:42:47;;;;;;;0.10;0.10;;;;;;;;;;6076633;23;20016;-94
2021/10/27 22:45:14;;;;;;;0.10;0.10;;;;;;;;;;6077387;23;20444;-93
2021/10/27 22:47:40;;;;;;;0.10;0.10;;;;;;;;;;6077267;23;20010;-92
2021/10/27 22:50:06;;;;;;;0.10;0.10;;;;;;;;;;6077232;23;20396;-94
2021/10/27 22:52:32;;;;;;;0.10;0.10;;;;;;;;;;6077402;23;20036;-95
2021/10/27 22:54:58;;;;;;;0.10;0.10;;;;;;;;;;6077060;23;20216;-94
2021/10/27 22:57:24;;;;;;;0.10;0.10;;;;;;;;;;6077071;23;20182;-92
2021/10/27 23:07:16;;;;;;;0.10;0.10;;;;;;;;;;6076881;23;20064;-94
2021/10/27 23:09:47;;;;;;;0.10;0.10;;;;;;;;;;6076808;23;20083;-92
2021/10/27 23:42:24;;;;;;;0.13;0.13;;;;;;;;;;6100877;23;20287;-93
2021/10/27 23:47:26;;;;;;;0.32;0.25;;;;;;;;;;6078190;23;20033;-94
2021/10/27 23:50:05;;;;;;;0.10;0.10;;;;;;;;;;6076550;23;20041;-93
2021/10/27 23:53:36;;;;;;;0.10;0.10;;;;;;;;;;6079522;23;20021;-92
